createdAt,value
2019-05-09T00:01:33.556Z,4.00
2019-05-09T00:04:03.897Z,4.10
2019-05-09T00:06:34.156Z,3.50
2019-05-09T00:09:06.004Z,4.27
2019-05-09T00:11:36.502Z,3.80
2019-05-09T00:14:06.765Z,3.70
2019-05-09T00:16:37.010Z,4.10
2019-05-09T00:19:07.550Z,4.13
2019-05-09T00:21:39.441Z,3.60
2019-05-09T00:24:09.693Z,4.03
2019-05-09T00:26:39.956Z,4.03
2019-05-09T00:29:13.930Z,3.73
2019-05-09T00:31:45.453Z,4.37
2019-05-09T00:34:23.457Z,4.23
2019-05-09T00:36:54.023Z,4.00
2019-05-09T00:39:24.278Z,3.40
2019-05-09T00:41:54.531Z,3.13
2019-05-09T00:44:29.123Z,3.90
2019-05-09T00:47:01.041Z,3.50
2019-05-09T00:49:31.491Z,3.50
2019-05-09T00:52:03.534Z,3.33
2019-05-09T00:54:33.678Z,3.10
2019-05-09T00:57:03.973Z,3.23
2019-05-09T00:59:34.249Z,3.00
2019-05-09T01:02:04.529Z,2.97
2019-05-09T01:04:34.811Z,3.03
2019-05-09T01:07:05.651Z,3.10
2019-05-09T01:09:35.908Z,3.20
2019-05-09T01:12:06.166Z,3.00
2019-05-09T01:14:36.415Z,3.53
2019-05-09T01:17:06.706Z,3.03
2019-05-09T01:19:36.985Z,3.50
2019-05-09T01:22:07.306Z,3.40
2019-05-09T01:24:37.587Z,3.43
2019-05-09T01:27:27.268Z,3.57
2019-05-09T01:29:57.547Z,3.30
2019-05-09T01:32:47.393Z,3.30
2019-05-09T01:35:17.655Z,2.87
2019-05-09T01:37:47.906Z,3.40
2019-05-09T01:40:18.191Z,3.10
2019-05-09T01:42:48.465Z,3.30
2019-05-09T01:45:18.705Z,3.13
2019-05-09T01:47:48.982Z,3.63
2019-05-09T01:50:19.230Z,3.47
2019-05-09T01:52:49.504Z,3.60
2019-05-09T01:55:19.751Z,3.47
2019-05-09T01:57:50.026Z,3.83
2019-05-09T02:00:20.274Z,3.73
2019-05-09T02:02:51.097Z,3.10
2019-05-09T02:05:21.346Z,3.13
2019-05-09T02:07:51.603Z,3.27
2019-05-09T02:10:23.278Z,3.60
2019-05-09T02:12:53.914Z,3.53
2019-05-09T02:15:37.328Z,3.70
2019-05-09T02:18:17.868Z,3.67
2019-05-09T02:20:48.144Z,3.80
2019-05-09T02:23:18.387Z,3.40
2019-05-09T02:25:48.964Z,3.67
2019-05-09T02:28:19.481Z,3.70
2019-05-09T02:30:49.765Z,3.67
2019-05-09T02:33:20.038Z,3.57
2019-05-09T02:35:56.659Z,4.03
2019-05-09T02:38:22.286Z,3.73
2019-05-09T02:40:52.554Z,3.87
2019-05-09T02:43:23.097Z,3.60
2019-05-09T02:45:59.442Z,4.13
2019-05-09T02:48:29.608Z,3.97
2019-05-09T02:51:00.535Z,3.70
2019-05-09T02:53:30.999Z,3.70
2019-05-09T02:56:01.548Z,3.90
2019-05-09T02:58:33.471Z,4.10
2019-05-09T03:01:07.979Z,3.97
2019-05-09T03:03:39.413Z,4.60
2019-05-09T03:06:09.863Z,3.90
2019-05-09T03:08:40.153Z,3.87
2019-05-09T03:11:10.387Z,4.10
2019-05-09T03:13:40.805Z,4.13
2019-05-09T03:16:12.746Z,3.90
2019-05-09T03:18:42.991Z,3.73
2019-05-09T03:21:24.602Z,3.63
2019-05-09T03:23:54.862Z,3.37
2019-05-09T03:26:29.306Z,3.73
2019-05-09T03:29:19.101Z,3.50
2019-05-09T03:31:50.623Z,3.33
2019-05-09T03:34:20.960Z,3.57
2019-05-09T03:36:51.260Z,3.40
2019-05-09T03:39:21.811Z,3.00
2019-05-09T03:41:52.059Z,3.23
2019-05-09T03:44:22.598Z,2.83
2019-05-09T03:47:03.746Z,3.10
2019-05-09T03:49:34.042Z,3.10
2019-05-09T03:52:04.355Z,3.17
2019-05-09T03:54:34.658Z,2.87
2019-05-09T03:57:07.722Z,3.00
2019-05-09T03:59:39.772Z,3.03
2019-05-09T04:02:10.677Z,3.27
2019-05-09T04:04:40.953Z,3.40
2019-05-09T04:07:11.225Z,2.83
2019-05-09T04:09:41.497Z,3.00
2019-05-09T04:12:11.773Z,2.83
2019-05-09T04:14:42.056Z,2.57
2019-05-09T04:17:12.797Z,2.87
2019-05-09T04:19:43.081Z,2.53
2019-05-09T04:22:13.321Z,2.43
2019-05-09T04:24:43.971Z,2.30
2019-05-09T04:27:17.803Z,2.80
2019-05-09T04:29:48.382Z,2.70
2019-05-09T04:32:18.801Z,2.77
2019-05-09T04:34:49.089Z,2.70
2019-05-09T04:37:19.360Z,2.20
2019-05-09T04:39:53.943Z,2.60
2019-05-09T04:42:22.910Z,2.57
2019-05-09T04:44:57.241Z,2.30
2019-05-09T04:47:27.839Z,2.30
2019-05-09T04:49:58.475Z,2.27
2019-05-09T04:52:28.882Z,2.03
2019-05-09T04:54:59.224Z,2.57
2019-05-09T04:57:29.512Z,2.17
2019-05-09T04:59:59.783Z,2.43
2019-05-09T05:02:38.122Z,2.13
2019-05-09T05:05:08.494Z,2.20
2019-05-09T05:07:38.763Z,2.40
2019-05-09T05:10:09.234Z,2.90
2019-05-09T05:12:39.566Z,2.70
2019-05-09T05:15:10.488Z,3.00
2019-05-09T05:17:40.759Z,3.10
2019-05-09T05:20:14.331Z,2.90
2019-05-09T05:22:48.976Z,3.10
2019-05-09T05:25:19.243Z,2.90
2019-05-09T05:27:49.490Z,3.10
2019-05-09T05:30:19.763Z,2.70
2019-05-09T05:32:54.373Z,3.10
2019-05-09T05:35:29.215Z,3.40
2019-05-09T05:37:59.493Z,2.90
2019-05-09T05:40:33.040Z,3.27
2019-05-09T05:43:01.721Z,3.03
2019-05-09T05:45:33.673Z,2.97
2019-05-09T05:48:07.803Z,3.43
2019-05-09T05:50:38.244Z,3.70
2019-05-09T05:53:08.667Z,3.13
2019-05-09T05:55:39.002Z,3.47
2019-05-09T05:58:09.281Z,3.00
2019-05-09T06:00:39.862Z,3.33
2019-05-09T06:03:10.106Z,2.93
2019-05-09T06:05:40.378Z,3.33
2019-05-09T06:08:10.930Z,3.20
2019-05-09T06:10:41.426Z,3.00
2019-05-09T06:13:11.745Z,2.87
2019-05-09T06:15:42.302Z,2.93
2019-05-09T06:18:12.651Z,3.23
2019-05-09T06:20:45.645Z,3.00
2019-05-09T06:23:17.440Z,3.00
2019-05-09T06:25:48.428Z,3.23
2019-05-09T06:28:18.976Z,2.80
2019-05-09T06:30:49.266Z,2.50
2019-05-09T06:33:19.538Z,3.03
2019-05-09T06:35:49.780Z,2.97
2019-05-09T06:38:20.110Z,3.23
2019-05-09T06:40:50.713Z,2.97
2019-05-09T06:43:22.883Z,2.80
2019-05-09T06:45:54.829Z,3.03
2019-05-09T06:48:28.305Z,3.30
2019-05-09T06:50:58.338Z,3.23
2019-05-09T06:53:28.585Z,3.10
2019-05-09T06:55:58.864Z,2.97
2019-05-09T06:58:33.031Z,3.10
2019-05-09T07:01:07.530Z,3.13
2019-05-09T07:03:57.591Z,2.97
2019-05-09T07:06:29.513Z,3.00
2019-05-09T07:09:01.438Z,3.07
2019-05-09T07:11:31.672Z,2.53
2019-05-09T07:14:01.914Z,2.73
2019-05-09T07:16:32.190Z,2.63
2019-05-09T07:19:02.430Z,2.63
2019-05-09T07:21:53.211Z,2.93
2019-05-09T07:24:23.503Z,2.13
2019-05-09T07:26:53.776Z,2.20
2019-05-09T07:29:24.305Z,2.20
2019-05-09T07:31:57.327Z,2.37
2019-05-09T07:34:32.223Z,2.17
2019-05-09T07:37:02.482Z,2.17
2019-05-09T07:39:33.209Z,2.07
2019-05-09T07:42:03.471Z,1.87
2019-05-09T07:44:46.233Z,2.20
2019-05-09T07:47:07.551Z,2.20
2019-05-09T07:49:37.896Z,2.10
2019-05-09T07:52:10.225Z,2.00
2019-05-09T07:54:40.201Z,2.40
2019-05-09T07:57:10.752Z,1.97
2019-05-09T07:59:41.028Z,2.10
2019-05-09T08:02:11.268Z,1.87
2019-05-09T08:04:41.563Z,2.50
2019-05-09T08:07:11.826Z,2.33
2019-05-09T08:09:42.157Z,1.87
2019-05-09T08:12:12.435Z,2.10
2019-05-09T08:14:42.707Z,2.20
2019-05-09T08:17:12.945Z,1.80
2019-05-09T08:19:43.238Z,2.10
2019-05-09T08:22:13.488Z,1.97
2019-05-09T08:24:43.742Z,1.73
2019-05-09T08:27:14.396Z,2.10
2019-05-09T08:29:44.675Z,2.03
2019-05-09T08:32:14.922Z,2.20
2019-05-09T08:34:45.206Z,2.07
2019-05-09T08:37:17.431Z,1.53
2019-05-09T08:39:48.446Z,1.90
2019-05-09T08:42:20.067Z,1.70
2019-05-09T08:44:50.619Z,1.70
2019-05-09T08:47:20.879Z,2.00
2019-05-09T08:50:11.329Z,2.10
2019-05-09T08:52:41.589Z,1.90
2019-05-09T08:55:11.833Z,2.10
2019-05-09T08:57:42.260Z,2.20
2019-05-09T09:00:13.445Z,2.00
2019-05-09T09:02:43.698Z,1.90
2019-05-09T09:05:14.179Z,1.90
2019-05-09T09:07:44.607Z,1.87
2019-05-09T09:10:15.451Z,2.10
2019-05-09T09:12:47.733Z,2.10
2019-05-09T09:15:18.154Z,2.20
2019-05-09T09:17:49.209Z,2.13
2019-05-09T09:20:19.532Z,2.20
2019-05-09T09:22:49.813Z,2.47
2019-05-09T09:25:20.094Z,2.20
2019-05-09T09:27:51.235Z,2.10
2019-05-09T09:30:25.028Z,2.10
2019-05-09T09:32:53.804Z,2.37
2019-05-09T09:35:24.660Z,2.20
2019-05-09T09:37:57.762Z,2.17
2019-05-09T09:40:27.917Z,2.37
2019-05-09T09:42:58.490Z,2.20
2019-05-09T09:45:28.796Z,2.60
2019-05-09T09:47:59.433Z,2.00
2019-05-09T09:50:29.625Z,2.20
2019-05-09T09:53:00.276Z,2.40
2019-05-09T09:55:30.952Z,2.40
2019-05-09T09:58:01.258Z,2.50
2019-05-09T10:00:42.298Z,2.30
2019-05-09T10:03:12.682Z,2.20
2019-05-09T10:05:42.953Z,2.30
2019-05-09T10:08:14.123Z,2.47
2019-05-09T10:10:44.788Z,2.10
2019-05-09T10:13:15.056Z,2.07
2019-05-09T10:15:58.534Z,1.80
2019-05-09T10:18:43.216Z,1.63
2019-05-09T10:21:15.399Z,2.10
2019-05-09T10:23:48.128Z,1.83
2019-05-09T10:26:17.913Z,1.63
2019-05-09T10:28:48.667Z,2.17
2019-05-09T10:31:19.286Z,2.00
2019-05-09T10:33:49.593Z,2.13
2019-05-09T10:36:19.878Z,1.87
2019-05-09T10:38:50.163Z,1.90
2019-05-09T10:41:20.607Z,1.97
2019-05-09T10:44:08.863Z,1.80
2019-05-09T10:46:57.115Z,1.70
2019-05-09T10:49:21.549Z,1.80
2019-05-09T10:51:51.795Z,2.23
2019-05-09T10:54:22.088Z,2.23
2019-05-09T10:56:52.364Z,2.10
2019-05-09T10:59:22.597Z,2.57
2019-05-09T11:01:52.913Z,2.40
2019-05-09T11:04:23.191Z,1.83
2019-05-09T11:06:53.426Z,1.97
2019-05-09T11:09:23.998Z,2.00
2019-05-09T11:11:54.303Z,2.53
2019-05-09T11:14:36.131Z,2.13
2019-05-09T11:17:07.864Z,2.30
2019-05-09T11:19:29.000Z,2.30
2019-05-09T11:21:59.215Z,2.00
2019-05-09T11:24:41.688Z,2.20
2019-05-09T11:27:02.068Z,2.27
2019-05-09T11:29:32.552Z,2.20
2019-05-09T11:32:02.861Z,2.43
2019-05-09T11:34:33.102Z,3.07
2019-05-09T11:37:03.351Z,2.53
2019-05-09T11:39:39.018Z,2.27
2019-05-09T11:42:05.711Z,2.20
2019-05-09T11:44:38.403Z,2.17
2019-05-09T11:47:27.680Z,2.40
2019-05-09T11:49:39.969Z,2.07
2019-05-09T11:52:10.206Z,2.70
2019-05-09T11:54:40.458Z,3.00
2019-05-09T11:57:10.712Z,2.57
2019-05-09T11:59:41.002Z,1.93
2019-05-09T12:02:11.319Z,2.83
2019-05-09T12:04:41.606Z,3.27
2019-05-09T12:07:11.928Z,3.70
2019-05-09T12:09:42.187Z,3.87
2019-05-09T12:12:12.468Z,3.80
2019-05-09T12:14:42.715Z,3.47
2019-05-09T12:17:12.968Z,3.50
2019-05-09T12:19:43.460Z,4.03
2019-05-09T12:22:13.738Z,3.77
2019-05-09T12:24:44.249Z,2.40
2019-05-09T12:27:14.498Z,2.13
2019-05-09T12:29:44.778Z,2.13
2019-05-09T12:32:15.036Z,2.10
2019-05-09T12:34:47.839Z,2.60
2019-05-09T12:37:18.237Z,3.13
2019-05-09T12:39:48.808Z,3.27
2019-05-09T12:42:19.163Z,3.33
2019-05-09T12:44:49.810Z,2.87
2019-05-09T12:47:20.086Z,3.13
2019-05-09T12:49:50.319Z,2.60
2019-05-09T12:52:20.573Z,2.90
2019-05-09T12:54:50.847Z,2.50
2019-05-09T12:57:21.138Z,2.60
2019-05-09T12:59:52.884Z,2.70
2019-05-09T13:02:23.368Z,2.20
2019-05-09T13:04:53.683Z,2.30
2019-05-09T13:07:24.003Z,2.20
2019-05-09T13:09:54.249Z,2.10
2019-05-09T13:12:24.522Z,2.47
2019-05-09T13:14:54.831Z,2.20
2019-05-09T13:17:29.700Z,1.80
2019-05-09T13:19:59.938Z,1.53
2019-05-09T13:22:30.208Z,1.40
2019-05-09T13:25:02.883Z,1.20
2019-05-09T13:27:32.937Z,1.43
2019-05-09T13:30:03.891Z,1.30
2019-05-09T13:32:34.149Z,1.60
2019-05-09T13:35:05.406Z,1.30
2019-05-09T13:37:38.252Z,1.60
2019-05-09T13:40:08.598Z,2.10
2019-05-09T13:42:39.678Z,1.57
2019-05-09T13:45:10.080Z,1.50
2019-05-09T13:47:40.408Z,2.07
2019-05-09T13:50:10.716Z,1.70
2019-05-09T13:52:40.959Z,1.80
2019-05-09T13:55:11.279Z,1.80
2019-05-09T13:57:41.577Z,5.33
2019-05-09T14:00:11.858Z,2.50
2019-05-09T14:02:45.081Z,2.00
2019-05-09T14:05:14.808Z,1.80
2019-05-09T14:07:45.097Z,1.80
2019-05-09T14:10:17.608Z,2.17
2019-05-09T14:13:04.560Z,2.00
2019-05-09T14:15:19.263Z,1.50
2019-05-09T14:17:53.651Z,1.30
2019-05-09T14:20:21.520Z,1.43
2019-05-09T14:22:52.063Z,1.47
2019-05-09T14:25:23.495Z,1.53
2019-05-09T14:27:53.773Z,1.70
2019-05-09T14:30:24.257Z,1.60
2019-05-09T14:32:54.955Z,2.20
2019-05-09T14:35:27.770Z,1.50
2019-05-09T14:37:59.166Z,2.00
2019-05-09T14:40:29.515Z,1.13
2019-05-09T14:42:59.797Z,1.30
2019-05-09T14:45:30.081Z,1.33
2019-05-09T14:48:00.356Z,1.50
2019-05-09T14:50:30.897Z,1.40
2019-05-09T14:53:01.157Z,1.53
2019-05-09T14:55:31.395Z,1.10
2019-05-09T14:58:01.668Z,1.80
2019-05-09T15:00:31.956Z,1.83
2019-05-09T15:03:02.186Z,1.40
2019-05-09T15:05:33.107Z,1.60
2019-05-09T15:08:03.356Z,1.72
2019-05-09T15:10:33.810Z,1.70
2019-05-09T15:13:04.054Z,1.40
2019-05-09T15:15:34.333Z,1.62
2019-05-09T15:18:04.652Z,1.70
2019-05-09T15:20:34.934Z,1.40
2019-05-09T15:23:05.207Z,2.07
2019-05-09T15:25:35.455Z,1.87
2019-05-09T15:28:08.287Z,2.10
2019-05-09T15:30:38.550Z,1.90
2019-05-09T15:33:08.964Z,1.60
2019-05-09T15:35:39.290Z,2.03
2019-05-09T15:38:09.515Z,2.00
2019-05-09T15:40:40.727Z,1.70
2019-05-09T15:43:10.987Z,1.87
2019-05-09T15:45:46.074Z,2.17
2019-05-09T15:48:18.118Z,1.87
2019-05-09T15:50:48.555Z,1.90
2019-05-09T15:53:18.834Z,1.77
2019-05-09T15:55:49.083Z,1.90
2019-05-09T15:58:19.336Z,2.93
2019-05-09T16:00:50.101Z,2.10
2019-05-09T16:03:20.397Z,2.00
2019-05-09T16:05:50.622Z,2.30
2019-05-09T16:08:20.946Z,2.33
2019-05-09T16:10:51.212Z,1.90
2019-05-09T16:13:21.459Z,2.20
2019-05-09T16:15:51.759Z,2.23
2019-05-09T16:18:22.036Z,2.37
2019-05-09T16:20:52.363Z,2.20
2019-05-09T16:23:22.670Z,2.20
2019-05-09T16:25:52.997Z,1.90
2019-05-09T16:28:23.239Z,2.13
2019-05-09T16:30:53.551Z,2.10
2019-05-09T16:33:23.839Z,1.83
2019-05-09T16:35:54.104Z,2.13
2019-05-09T16:38:38.844Z,1.93
2019-05-09T16:40:58.227Z,2.10
2019-05-09T16:43:28.482Z,1.70
2019-05-09T16:45:58.836Z,1.70
2019-05-09T16:48:29.159Z,1.80
2019-05-09T16:51:03.178Z,1.80
2019-05-09T16:53:31.418Z,1.87
2019-05-09T16:56:01.647Z,1.50
2019-05-09T16:58:32.121Z,1.83
2019-05-09T17:01:02.373Z,1.77
2019-05-09T17:03:32.627Z,1.70
2019-05-09T17:06:02.877Z,2.30
2019-05-09T17:08:33.429Z,1.70
2019-05-09T17:11:03.710Z,1.90
2019-05-09T17:13:33.998Z,2.93
2019-05-09T17:16:07.401Z,1.90
2019-05-09T17:18:38.149Z,1.70
2019-05-09T17:21:18.719Z,1.40
2019-05-09T17:23:47.928Z,1.30
2019-05-09T17:26:19.254Z,1.33
2019-05-09T17:28:49.544Z,1.37
2019-05-09T17:31:19.905Z,1.70
2019-05-09T17:33:50.208Z,1.60
2019-05-09T17:36:20.714Z,1.60
2019-05-09T17:38:51.040Z,1.87
2019-05-09T17:41:21.293Z,1.70
2019-05-09T17:43:51.571Z,1.60
2019-05-09T17:46:24.449Z,1.80
2019-05-09T17:48:53.910Z,1.80
2019-05-09T17:51:33.037Z,1.97
2019-05-09T17:53:58.382Z,2.00
2019-05-09T17:56:28.110Z,2.30
2019-05-09T17:58:58.535Z,3.87
2019-05-09T18:01:29.004Z,4.13
2019-05-09T18:03:59.811Z,4.00
2019-05-09T18:06:30.077Z,3.07
2019-05-09T18:09:00.578Z,2.83
2019-05-09T18:11:30.899Z,3.47
2019-05-09T18:14:01.163Z,3.83
2019-05-09T18:16:31.446Z,2.10
2019-05-09T18:19:01.689Z,1.90
2019-05-09T18:21:47.270Z,2.13
2019-05-09T18:24:04.679Z,2.00
2019-05-09T18:26:34.950Z,2.47
2019-05-09T18:29:05.411Z,2.63
2019-05-09T18:31:43.157Z,2.40
2019-05-09T18:34:13.415Z,3.00
2019-05-09T18:36:43.980Z,3.20
2019-05-09T18:39:14.225Z,3.00
2019-05-09T18:41:44.601Z,3.60
2019-05-09T18:44:14.879Z,3.57
2019-05-09T18:46:45.377Z,3.20
2019-05-09T18:49:15.663Z,3.00
2019-05-09T18:51:45.940Z,3.17
2019-05-09T18:54:16.434Z,3.37
2019-05-09T18:56:46.690Z,3.17
2019-05-09T18:59:17.076Z,3.40
2019-05-09T19:01:47.473Z,3.07
2019-05-09T19:04:17.768Z,2.70
2019-05-09T19:06:48.006Z,2.77
2019-05-09T19:09:18.288Z,2.30
2019-05-09T19:11:48.633Z,2.53
2019-05-09T19:14:20.872Z,2.30
2019-05-09T19:17:03.157Z,2.40
2019-05-09T19:19:35.015Z,2.40
2019-05-09T19:22:21.396Z,2.53
2019-05-09T19:24:38.542Z,2.23
2019-05-09T19:27:09.107Z,2.60
2019-05-09T19:29:39.391Z,2.70
2019-05-09T19:32:09.626Z,4.13
2019-05-09T19:34:40.309Z,4.10
2019-05-09T19:37:10.575Z,3.60
2019-05-09T19:39:40.845Z,3.53
2019-05-09T19:42:11.194Z,3.50
2019-05-09T19:44:41.481Z,2.80
2019-05-09T19:47:11.722Z,2.50
2019-05-09T19:49:42.009Z,2.70
2019-05-09T19:52:12.328Z,2.50
2019-05-09T19:54:42.589Z,2.90
2019-05-09T19:57:12.876Z,2.50
2019-05-09T19:59:43.212Z,3.13
2019-05-09T20:02:13.607Z,3.17
2019-05-09T20:04:43.891Z,3.23
2019-05-09T20:07:14.193Z,3.03
2019-05-09T20:09:49.173Z,3.00
2019-05-09T20:12:26.762Z,3.07
2019-05-09T20:14:57.038Z,3.20
2019-05-09T20:17:27.476Z,3.10
2019-05-09T20:19:57.744Z,3.80
2019-05-09T20:22:28.054Z,4.03
2019-05-09T20:24:58.318Z,4.33
2019-05-09T20:27:28.926Z,4.50
2019-05-09T20:29:59.318Z,3.60
2019-05-09T20:32:29.700Z,3.53
2019-05-09T20:35:00.018Z,3.83
2019-05-09T20:37:30.487Z,3.63
2019-05-09T20:40:00.920Z,3.53
2019-05-09T20:42:31.624Z,3.40
2019-05-09T20:45:02.068Z,3.63
2019-05-09T20:47:33.900Z,3.50
2019-05-09T20:50:05.872Z,3.50
2019-05-09T20:52:36.435Z,3.10
2019-05-09T20:55:07.195Z,3.00
2019-05-09T20:57:37.632Z,3.50
2019-05-09T21:00:08.203Z,3.40
2019-05-09T21:02:38.735Z,3.43
2019-05-09T21:05:09.167Z,2.93
2019-05-09T21:07:39.608Z,3.40
2019-05-09T21:10:10.085Z,3.53
2019-05-09T21:12:40.529Z,3.33
2019-05-09T21:15:11.386Z,4.00
2019-05-09T21:17:41.825Z,3.70
2019-05-09T21:20:12.296Z,3.60
2019-05-09T21:22:42.911Z,3.70
2019-05-09T21:25:15.035Z,3.57
2019-05-09T21:27:45.501Z,4.03
2019-05-09T21:30:16.025Z,4.17
2019-05-09T21:32:46.494Z,3.80
2019-05-09T21:35:16.823Z,4.10
2019-05-09T21:37:47.112Z,4.13
2019-05-09T21:40:17.749Z,4.50
2019-05-09T21:42:48.015Z,4.37
2019-05-09T21:45:18.287Z,3.87
2019-05-09T21:47:49.271Z,4.57
2019-05-09T21:50:19.867Z,5.13
2019-05-09T21:52:50.115Z,4.70
2019-05-09T21:55:20.463Z,4.77
2019-05-09T21:57:50.723Z,4.63
2019-05-09T22:00:29.449Z,4.60
2019-05-09T22:02:59.800Z,4.07
2019-05-09T22:05:30.054Z,4.40
2019-05-09T22:08:00.330Z,4.07
2019-05-09T22:10:30.578Z,4.03
2019-05-09T22:13:00.827Z,4.47
2019-05-09T22:15:31.199Z,3.70
2019-05-09T22:18:01.478Z,3.93
2019-05-09T22:20:31.770Z,3.90
2019-05-09T22:23:02.062Z,4.17
2019-05-09T22:25:32.487Z,4.50
2019-05-09T22:28:02.737Z,4.07
2019-05-09T22:30:33.013Z,4.40
2019-05-09T22:33:03.261Z,4.60
2019-05-09T22:35:33.506Z,4.30
2019-05-09T22:38:03.767Z,5.33
2019-05-09T22:40:34.005Z,4.73
2019-05-09T22:43:04.258Z,4.90
2019-05-09T22:45:34.507Z,5.67
2019-05-09T22:48:05.052Z,5.70
2019-05-09T22:50:35.304Z,4.80
2019-05-09T22:53:05.560Z,4.63
2019-05-09T22:55:35.815Z,5.10
2019-05-09T22:58:06.261Z,6.30
2019-05-09T23:00:36.593Z,5.80
2019-05-09T23:03:06.895Z,5.53
2019-05-09T23:05:37.183Z,5.60
2019-05-09T23:08:07.437Z,5.27
2019-05-09T23:10:37.716Z,5.80
2019-05-09T23:13:08.000Z,5.37
2019-05-09T23:15:38.248Z,5.50
2019-05-09T23:18:08.537Z,5.70
2019-05-09T23:20:41.373Z,5.50
2019-05-09T23:23:22.442Z,5.53
2019-05-09T23:25:52.758Z,5.37
2019-05-09T23:28:23.473Z,6.00
2019-05-09T23:30:55.463Z,6.20
2019-05-09T23:33:27.335Z,5.73
2019-05-09T23:35:57.588Z,5.30
2019-05-09T23:38:27.822Z,5.23
2019-05-09T23:40:58.057Z,5.73
2019-05-09T23:43:28.336Z,5.83
2019-05-09T23:45:58.598Z,5.90
2019-05-09T23:48:28.844Z,6.33
2019-05-09T23:50:59.100Z,7.03
2019-05-09T23:53:36.368Z,7.53
2019-05-09T23:56:23.990Z,6.70
2019-05-09T23:59:12.467Z,6.23
